Terminal Aerodrome Forecast
Issued by NWS

Home | Current Version | Previous Version | Text Only | Print | Product List | Glossary On
Versions: 1 2 3 4 5 6 7 8 9 10 11 12 13 14 15 16 17 18 19
854
FTUS43 KICT 250520
TAFCNU
TAF
KCNU 250520Z 2506/2606 34009KT P6SM OVC090
     FM250800 34011KT 5SM -SHRA OVC050
     FM251000 34012KT 5SM -SHRA OVC015
     FM251400 34006KT 5SM SHRA OVC008
     FM252100 34006KT 3SM -SHRA OVC015
     FM260000 35006KT P6SM OVC015=

USA.gov is the U.S. government's official web portal to all federal, state and local government web resources and services.